Time;durP1;ratioP1;P1;durP2;ratioP2;P2;SDS_P1;SDS_P2;PMS_P1;PMS_P2;Temp;Humidity;BMP_temperature;BMP_pressure;BME280_temperature;BME280_humidity;BME280_pressure;Samples;Min_cycle;Max_cycle;Signal;HPM_P1;HPM_P2
2022/03/11 00:00:26;;;;;;;38.22;3.60;;;;;;;;;;5011001;28;20066;-32
2022/03/11 00:02:53;;;;;;;23.63;3.67;;;;;;;;;;5011083;28;20030;-31
2022/03/11 00:05:20;;;;;;;33.80;4.15;;;;;;;;;;5011356;28;20121;-33
2022/03/11 00:07:47;;;;;;;24.75;3.63;;;;;;;;;;5003654;28;20121;-32
2022/03/11 00:10:14;;;;;;;33.30;3.25;;;;;;;;;;4992314;28;20034;-32
2022/03/11 00:12:41;;;;;;;26.75;3.40;;;;;;;;;;4990980;28;20034;-32
2022/03/11 00:15:08;;;;;;;26.02;3.30;;;;;;;;;;4992001;28;20026;-32
2022/03/11 00:17:38;;;;;;;22.52;2.85;;;;;;;;;;5010462;28;20076;-33
2022/03/11 00:20:06;;;;;;;23.02;3.20;;;;;;;;;;5004563;28;20480;-33
2022/03/11 00:22:33;;;;;;;37.33;4.20;;;;;;;;;;5000801;28;20042;-32
2022/03/11 00:25:00;;;;;;;36.35;3.63;;;;;;;;;;4996825;28;20109;-32
2022/03/11 00:27:27;;;;;;;26.67;3.75;;;;;;;;;;4998097;28;20130;-31
2022/03/11 00:29:54;;;;;;;25.77;3.55;;;;;;;;;;4998612;28;20108;-32
2022/03/11 00:32:21;;;;;;;22.15;2.95;;;;;;;;;;4999941;28;20037;-33
2022/03/11 00:34:48;;;;;;;31.40;4.07;;;;;;;;;;4999838;28;20392;-34
2022/03/11 00:37:15;;;;;;;29.48;3.95;;;;;;;;;;4997047;28;20041;-33
2022/03/11 00:39:44;;;;;;;21.60;2.92;;;;;;;;;;4999951;28;20504;-33
2022/03/11 00:42:11;;;;;;;30.52;4.05;;;;;;;;;;5000672;28;20057;-33
2022/03/11 00:44:39;;;;;;;20.15;2.75;;;;;;;;;;4997932;28;20026;-34
2022/03/11 00:47:07;;;;;;;25.10;3.55;;;;;;;;;;4990572;28;20030;-33
2022/03/11 00:49:35;;;;;;;29.95;3.40;;;;;;;;;;4991388;28;20034;-33
2022/03/11 00:52:02;;;;;;;35.42;5.30;;;;;;;;;;4990651;28;20031;-32
2022/03/11 00:54:29;;;;;;;33.03;4.38;;;;;;;;;;4991055;28;20111;-33
2022/03/11 00:56:56;;;;;;;30.92;4.25;;;;;;;;;;4991655;28;20041;-32
2022/03/11 00:59:23;;;;;;;40.45;7.07;;;;;;;;;;4996907;28;20026;-33
2022/03/11 01:01:50;;;;;;;78.32;8.98;;;;;;;;;;4998698;28;20042;-33
2022/03/11 01:04:17;;;;;;;57.40;8.05;;;;;;;;;;4977530;28;20031;-32
2022/03/11 01:06:44;;;;;;;62.92;8.52;;;;;;;;;;5000010;28;20113;-32
2022/03/11 01:09:11;;;;;;;68.13;9.57;;;;;;;;;;5010265;28;20030;-32
2022/03/11 01:11:38;;;;;;;57.92;9.38;;;;;;;;;;5010825;28;20125;-32
2022/03/11 01:14:06;;;;;;;62.50;9.73;;;;;;;;;;5009578;28;20073;-32
2022/03/11 01:16:33;;;;;;;51.47;8.50;;;;;;;;;;4992783;28;20051;-32
2022/03/11 01:19:00;;;;;;;55.75;11.05;;;;;;;;;;5010568;28;20088;-32
2022/03/11 01:21:27;;;;;;;81.32;16.33;;;;;;;;;;5010284;28;20400;-32
2022/03/11 01:23:54;;;;;;;107.65;24.42;;;;;;;;;;5010453;28;20128;-32
2022/03/11 01:26:21;;;;;;;126.70;32.45;;;;;;;;;;5010314;28;20377;-32
2022/03/11 01:28:52;;;;;;;142.38;36.85;;;;;;;;;;5010815;28;20030;-32
2022/03/11 01:31:19;;;;;;;148.88;40.70;;;;;;;;;;5010250;28;20610;-32
2022/03/11 01:33:47;;;;;;;128.85;40.28;;;;;;;;;;5010200;28;20046;-32
2022/03/11 01:36:15;;;;;;;128.82;38.05;;;;;;;;;;5010679;28;20030;-32
2022/03/11 01:38:43;;;;;;;107.88;33.63;;;;;;;;;;5010115;28;20034;-32
2022/03/11 01:41:11;;;;;;;103.00;32.83;;;;;;;;;;5012296;28;20054;-31
2022/03/11 01:43:54;;;;;;;125.32;33.70;;;;;;;;;;4999153;28;20029;-31
2022/03/11 01:46:22;;;;;;;101.35;30.70;;;;;;;;;;5014141;28;20060;-31
2022/03/11 01:48:49;;;;;;;106.20;29.88;;;;;;;;;;5014511;28;20049;-31
2022/03/11 01:51:16;;;;;;;101.53;29.73;;;;;;;;;;4997364;28;20049;-31
2022/03/11 01:53:44;;;;;;;91.70;28.02;;;;;;;;;;5013866;28;20038;-31
2022/03/11 01:56:11;;;;;;;92.60;26.35;;;;;;;;;;5015155;28;20446;-31
2022/03/11 01:58:39;;;;;;;97.10;26.65;;;;;;;;;;5008063;28;20399;-31
2022/03/11 02:01:06;;;;;;;88.13;25.42;;;;;;;;;;4994193;28;20030;-32
2022/03/11 02:03:33;;;;;;;94.35;25.88;;;;;;;;;;5000904;28;20108;-30
2022/03/11 02:06:02;;;;;;;79.47;24.42;;;;;;;;;;5014000;28;20037;-30
2022/03/11 02:08:30;;;;;;;69.60;22.77;;;;;;;;;;5012897;28;20037;-35
2022/03/11 02:10:58;;;;;;;72.32;20.70;;;;;;;;;;5003754;28;20037;-33
2022/03/11 02:13:26;;;;;;;67.63;21.05;;;;;;;;;;5003349;28;20030;-32
2022/03/11 02:15:53;;;;;;;76.30;22.00;;;;;;;;;;5003058;28;20389;-29
2022/03/11 02:18:20;;;;;;;63.83;19.52;;;;;;;;;;5004026;28;20511;-31
2022/03/11 02:20:49;;;;;;;66.05;19.85;;;;;;;;;;4987271;28;20022;-31
2022/03/11 02:23:18;;;;;;;68.68;19.42;;;;;;;;;;5003139;28;20074;-31
2022/03/11 02:25:45;;;;;;;60.92;18.30;;;;;;;;;;5003746;28;20682;-33
2022/03/11 02:28:12;;;;;;;76.10;19.23;;;;;;;;;;5002908;28;20030;-34
2022/03/11 02:30:39;;;;;;;67.75;17.95;;;;;;;;;;4995040;28;20642;-34
2022/03/11 02:33:06;;;;;;;59.10;16.83;;;;;;;;;;4998468;28;20113;-31
2022/03/11 02:35:33;;;;;;;62.78;16.77;;;;;;;;;;5009452;28;20489;-31
2022/03/11 02:38:00;;;;;;;52.55;14.77;;;;;;;;;;4992790;28;20101;-31
2022/03/11 02:40:27;;;;;;;50.08;16.00;;;;;;;;;;4994297;28;20026;-31
2022/03/11 02:42:54;;;;;;;49.28;14.73;;;;;;;;;;5012355;28;20144;-31
2022/03/11 02:45:21;;;;;;;45.90;13.48;;;;;;;;;;5013873;28;20026;-31
2022/03/11 02:47:48;;;;;;;46.95;15.35;;;;;;;;;;5014224;28;20532;-31
2022/03/11 02:50:15;;;;;;;46.42;14.40;;;;;;;;;;5014008;28;20018;-31
2022/03/11 02:52:42;;;;;;;36.85;14.23;;;;;;;;;;5013551;28;20062;-31
2022/03/11 02:55:09;;;;;;;45.35;13.07;;;;;;;;;;5014571;28;20528;-31
2022/03/11 02:57:36;;;;;;;48.47;13.70;;;;;;;;;;5012962;28;20030;-31
2022/03/11 03:00:04;;;;;;;37.55;12.52;;;;;;;;;;5013830;28;20026;-31
2022/03/11 03:02:31;;;;;;;47.90;13.88;;;;;;;;;;5014448;28;20030;-31
2022/03/11 03:04:58;;;;;;;39.58;12.50;;;;;;;;;;5013207;28;20018;-31
2022/03/11 03:07:25;;;;;;;38.58;12.50;;;;;;;;;;5013916;28;20030;-31
2022/03/11 03:09:52;;;;;;;34.35;11.02;;;;;;;;;;5013326;28;20026;-31
2022/03/11 03:12:19;;;;;;;37.33;11.95;;;;;;;;;;5014192;28;20100;-31
2022/03/11 03:14:46;;;;;;;38.45;12.10;;;;;;;;;;5013256;28;20077;-31
2022/03/11 03:17:13;;;;;;;29.85;10.18;;;;;;;;;;5013569;28;20041;-31
2022/03/11 03:19:40;;;;;;;33.53;11.23;;;;;;;;;;5013738;28;20025;-31
2022/03/11 03:22:07;;;;;;;31.70;9.70;;;;;;;;;;5012989;28;20042;-31
2022/03/11 03:24:34;;;;;;;33.75;10.93;;;;;;;;;;5013978;28;20622;-31
2022/03/11 03:27:02;;;;;;;31.52;10.00;;;;;;;;;;4995816;28;20057;-31
2022/03/11 03:29:29;;;;;;;28.98;10.10;;;;;;;;;;5013339;28;20505;-31
2022/03/11 03:31:59;;;;;;;31.67;10.35;;;;;;;;;;5013724;28;20037;-31
2022/03/11 03:34:30;;;;;;;24.65;8.80;;;;;;;;;;5012981;28;20030;-31
2022/03/11 03:36:58;;;;;;;29.00;9.93;;;;;;;;;;5013660;28;20030;-31
2022/03/11 03:39:25;;;;;;;26.38;8.90;;;;;;;;;;5013027;28;20029;-31
2022/03/11 03:41:52;;;;;;;28.73;9.52;;;;;;;;;;5013386;28;20522;-31
2022/03/11 03:44:19;;;;;;;25.27;8.65;;;;;;;;;;5012593;28;20026;-31
2022/03/11 03:46:46;;;;;;;20.92;8.07;;;;;;;;;;5013751;28;20045;-31
2022/03/11 03:49:13;;;;;;;25.63;8.35;;;;;;;;;;5012575;28;20128;-31
2022/03/11 03:51:40;;;;;;;24.42;7.68;;;;;;;;;;5013354;28;20026;-31
2022/03/11 03:54:09;;;;;;;21.20;7.68;;;;;;;;;;5013423;28;20030;-31
2022/03/11 03:56:37;;;;;;;21.58;8.05;;;;;;;;;;5013398;28;20095;-31
2022/03/11 03:59:07;;;;;;;19.52;7.07;;;;;;;;;;5012502;28;20117;-31
2022/03/11 04:01:52;;;;;;;19.70;7.70;;;;;;;;;;5012306;28;20025;-31
2022/03/11 04:04:19;;;;;;;19.10;6.85;;;;;;;;;;5013155;28;20022;-31
2022/03/11 04:06:46;;;;;;;21.25;7.00;;;;;;;;;;5012362;28;20041;-31
2022/03/11 04:09:13;;;;;;;18.30;6.80;;;;;;;;;;5012905;28;20018;-31
2022/03/11 04:11:40;;;;;;;19.85;6.43;;;;;;;;;;5012766;28;20045;-31
2022/03/11 04:14:07;;;;;;;17.27;6.32;;;;;;;;;;5012243;28;20029;-31
2022/03/11 04:16:34;;;;;;;18.63;6.68;;;;;;;;;;5013023;28;20037;-31
2022/03/11 04:19:01;;;;;;;16.20;5.90;;;;;;;;;;5011991;28;20033;-31
2022/03/11 04:21:28;;;;;;;17.38;6.22;;;;;;;;;;5012397;28;20072;-31
2022/03/11 04:23:56;;;;;;;14.10;5.55;;;;;;;;;;5012684;28;20037;-31
2022/03/11 04:26:23;;;;;;;17.08;6.22;;;;;;;;;;5013056;28;20021;-31
2022/03/11 04:28:51;;;;;;;16.70;5.93;;;;;;;;;;5011739;28;20022;-31
2022/03/11 04:31:18;;;;;;;16.70;6.18;;;;;;;;;;5013059;28;20026;-31
2022/03/11 04:33:44;;;;;;;17.13;6.32;;;;;;;;;;5012000;28;20034;-31
2022/03/11 04:36:12;;;;;;;16.95;5.80;;;;;;;;;;5012615;28;20022;-31
2022/03/11 04:38:39;;;;;;;22.13;5.90;;;;;;;;;;4994995;28;20028;-31
2022/03/11 04:41:06;;;;;;;13.10;5.10;;;;;;;;;;5011612;28;20524;-31
2022/03/11 04:43:33;;;;;;;20.75;5.35;;;;;;;;;;5012764;28;20026;-31
2022/03/11 04:46:01;;;;;;;16.00;5.68;;;;;;;;;;5012046;28;20022;-31
2022/03/11 04:48:27;;;;;;;12.23;4.72;;;;;;;;;;5012308;28;20097;-31
2022/03/11 04:50:56;;;;;;;14.52;5.03;;;;;;;;;;5012532;28;20083;-31
2022/03/11 04:53:23;;;;;;;14.90;4.53;;;;;;;;;;5011697;28;20557;-31
2022/03/11 04:55:50;;;;;;;12.95;4.57;;;;;;;;;;5012462;28;20041;-31
2022/03/11 04:58:17;;;;;;;14.40;4.88;;;;;;;;;;5011751;28;20520;-31
2022/03/11 05:00:44;;;;;;;13.02;4.10;;;;;;;;;;5012274;28;20029;-31
2022/03/11 05:03:11;;;;;;;9.88;3.55;;;;;;;;;;5011630;28;20026;-31
2022/03/11 05:05:38;;;;;;;9.25;3.70;;;;;;;;;;5012543;28;20022;-31
2022/03/11 05:08:05;;;;;;;17.77;4.43;;;;;;;;;;5011758;28;20026;-31
2022/03/11 05:10:32;;;;;;;12.68;3.40;;;;;;;;;;5012013;28;20029;-31
2022/03/11 05:12:59;;;;;;;10.63;3.78;;;;;;;;;;5012342;28;20022;-31
2022/03/11 05:15:29;;;;;;;9.68;3.38;;;;;;;;;;5011321;28;20077;-31
2022/03/11 05:17:55;;;;;;;12.27;3.50;;;;;;;;;;5011680;28;20025;-31
2022/03/11 05:20:23;;;;;;;15.63;3.63;;;;;;;;;;5013116;28;20029;-31
2022/03/11 05:22:50;;;;;;;11.13;3.40;;;;;;;;;;5015250;28;20034;-31
2022/03/11 05:25:17;;;;;;;10.05;3.30;;;;;;;;;;5016220;28;20552;-31
2022/03/11 05:27:44;;;;;;;11.23;3.10;;;;;;;;;;5015723;28;20032;-31
2022/03/11 05:30:11;;;;;;;10.45;3.50;;;;;;;;;;5015661;28;20022;-31
2022/03/11 05:32:46;;;;;;;11.52;3.45;;;;;;;;;;5015126;28;20037;-31
2022/03/11 05:35:14;;;;;;;10.63;3.08;;;;;;;;;;5016057;28;20117;-31
2022/03/11 05:37:41;;;;;;;8.60;2.92;;;;;;;;;;4997713;28;20450;-31
2022/03/11 05:40:09;;;;;;;8.07;2.50;;;;;;;;;;5015634;28;20026;-31
2022/03/11 05:42:36;;;;;;;10.30;2.65;;;;;;;;;;5015907;28;20049;-31
2022/03/11 05:45:03;;;;;;;8.85;2.50;;;;;;;;;;5014893;28;20370;-31
2022/03/11 05:47:31;;;;;;;9.50;3.00;;;;;;;;;;5015841;28;20029;-31
2022/03/11 05:49:58;;;;;;;10.88;2.78;;;;;;;;;;5014853;28;20448;-31
2022/03/11 05:52:25;;;;;;;9.88;2.90;;;;;;;;;;5015350;28;20042;-31
2022/03/11 05:54:52;;;;;;;10.20;3.10;;;;;;;;;;5014730;28;20768;-31
2022/03/11 05:57:19;;;;;;;7.38;2.22;;;;;;;;;;4998028;28;20519;-31
2022/03/11 05:59:46;;;;;;;9.48;2.75;;;;;;;;;;5014850;28;20423;-31
2022/03/11 06:02:13;;;;;;;8.85;2.53;;;;;;;;;;5015448;28;20041;-31
2022/03/11 06:04:40;;;;;;;6.45;2.10;;;;;;;;;;5015541;28;20117;-31
2022/03/11 06:07:07;;;;;;;7.85;2.88;;;;;;;;;;5014611;28;20042;-31
2022/03/11 06:09:34;;;;;;;8.45;2.42;;;;;;;;;;5015362;28;20061;-31
2022/03/11 06:12:01;;;;;;;5.38;1.95;;;;;;;;;;5014487;28;20030;-31
2022/03/11 06:14:28;;;;;;;8.52;2.15;;;;;;;;;;5015107;28;20024;-31
2022/03/11 06:16:55;;;;;;;7.82;2.13;;;;;;;;;;5015301;28;20053;-31
2022/03/11 06:19:22;;;;;;;6.13;2.10;;;;;;;;;;5014668;28;20026;-31
2022/03/11 06:21:49;;;;;;;6.35;2.35;;;;;;;;;;5015048;28;20036;-31
2022/03/11 06:24:16;;;;;;;10.30;2.10;;;;;;;;;;5014557;28;20032;-31
2022/03/11 06:26:43;;;;;;;10.82;2.65;;;;;;;;;;4996870;28;20455;-31
2022/03/11 06:29:10;;;;;;;9.50;2.42;;;;;;;;;;5015038;28;20096;-31
2022/03/11 06:31:38;;;;;;;7.05;2.08;;;;;;;;;;5154852;23;20080;-33
2022/03/11 06:34:05;;;;;;;8.98;2.08;;;;;;;;;;5014125;28;20495;-33
2022/03/11 06:36:34;;;;;;;5.15;1.75;;;;;;;;;;5014402;28;20029;-33
2022/03/11 06:39:01;;;;;;;6.78;1.83;;;;;;;;;;5014790;28;20036;-33
2022/03/11 06:41:28;;;;;;;7.05;1.90;;;;;;;;;;5014443;28;20014;-36
2022/03/11 06:43:55;;;;;;;5.57;1.90;;;;;;;;;;5014440;28;20025;-34
2022/03/11 06:46:22;;;;;;;6.07;1.90;;;;;;;;;;5014346;28;20360;-34
2022/03/11 06:48:49;;;;;;;7.22;1.92;;;;;;;;;;5014326;28;20022;-34
2022/03/11 06:51:16;;;;;;;9.90;2.47;;;;;;;;;;5014645;28;20022;-34
2022/03/11 06:53:44;;;;;;;6.15;1.58;;;;;;;;;;5014075;28;20048;-34
2022/03/11 06:56:11;;;;;;;6.30;2.00;;;;;;;;;;5014072;28;20122;-34
2022/03/11 06:58:38;;;;;;;8.90;2.20;;;;;;;;;;5014243;28;20670;-34
2022/03/11 07:01:05;;;;;;;8.35;2.15;;;;;;;;;;5014518;28;20018;-35
2022/03/11 07:03:32;;;;;;;6.45;2.08;;;;;;;;;;5013312;28;20026;-34
2022/03/11 07:05:59;;;;;;;8.80;1.80;;;;;;;;;;5014009;28;20022;-34
2022/03/11 07:08:28;;;;;;;5.82;1.63;;;;;;;;;;5013988;28;20141;-34
2022/03/11 07:10:55;;;;;;;5.78;1.80;;;;;;;;;;5014169;28;20391;-45
2022/03/11 07:13:21;;;;;;;4.63;1.50;;;;;;;;;;5013224;28;20029;-34
2022/03/11 07:15:49;;;;;;;9.70;1.90;;;;;;;;;;5013811;28;20550;-34
2022/03/11 07:18:16;;;;;;;8.70;1.77;;;;;;;;;;5013599;28;20539;-34
2022/03/11 07:20:43;;;;;;;5.95;1.63;;;;;;;;;;5014149;28;20053;-34
2022/03/11 07:23:10;;;;;;;7.45;1.67;;;;;;;;;;5013103;28;20018;-34
2022/03/11 07:25:38;;;;;;;6.60;1.90;;;;;;;;;;5014031;28;20026;-34
2022/03/11 07:28:05;;;;;;;4.57;1.67;;;;;;;;;;5013686;28;20041;-34
2022/03/11 07:30:32;;;;;;;5.43;1.45;;;;;;;;;;5013589;28;20072;-34
2022/03/11 07:33:01;;;;;;;5.90;1.67;;;;;;;;;;5013619;28;20046;-34
2022/03/11 07:35:28;;;;;;;5.72;1.65;;;;;;;;;;5012947;28;20399;-34
2022/03/11 07:37:55;;;;;;;7.60;1.70;;;;;;;;;;5013646;28;20441;-34
2022/03/11 07:40:22;;;;;;;5.78;1.40;;;;;;;;;;5013039;28;20030;-34
2022/03/11 07:42:49;;;;;;;4.65;1.67;;;;;;;;;;5012599;28;20029;-34
2022/03/11 07:45:16;;;;;;;5.82;1.70;;;;;;;;;;5013178;28;20100;-34
2022/03/11 07:47:44;;;;;;;5.53;1.50;;;;;;;;;;5012913;28;20036;-34
2022/03/11 07:50:12;;;;;;;5.13;1.45;;;;;;;;;;5013675;28;20045;-34
2022/03/11 07:52:39;;;;;;;7.40;1.88;;;;;;;;;;5012821;28;20030;-34
2022/03/11 07:55:07;;;;;;;6.05;1.23;;;;;;;;;;5012872;28;20029;-34
2022/03/11 07:57:36;;;;;;;7.70;1.75;;;;;;;;;;5013507;28;20018;-34
2022/03/11 08:00:04;;;;;;;6.82;1.30;;;;;;;;;;5012480;28;20034;-34
2022/03/11 08:02:32;;;;;;;6.80;1.30;;;;;;;;;;5013225;28;20396;-34
2022/03/11 08:04:59;;;;;;;6.90;1.63;;;;;;;;;;5012876;28;20092;-34
2022/03/11 08:07:26;;;;;;;4.97;1.70;;;;;;;;;;5012927;28;20022;-34
2022/03/11 08:09:53;;;;;;;5.95;1.40;;;;;;;;;;5012486;28;20495;-35
2022/03/11 08:12:20;;;;;;;6.40;1.58;;;;;;;;;;5012514;28;20065;-34
2022/03/11 08:14:47;;;;;;;5.43;1.35;;;;;;;;;;5012599;28;20380;-34
2022/03/11 08:17:15;;;;;;;4.93;1.60;;;;;;;;;;5013210;28;20049;-34
2022/03/11 08:19:42;;;;;;;7.00;1.50;;;;;;;;;;5011951;28;20034;-34
2022/03/11 08:22:11;;;;;;;6.03;1.33;;;;;;;;;;5013030;28;20033;-34
2022/03/11 08:24:39;;;;;;;4.75;1.48;;;;;;;;;;5012566;28;20030;-34
2022/03/11 08:27:07;;;;;;;5.80;1.40;;;;;;;;;;5012377;28;20108;-34
2022/03/11 08:29:34;;;;;;;3.88;1.20;;;;;;;;;;5012430;28;20034;-35
2022/03/11 08:32:03;;;;;;;4.80;1.40;;;;;;;;;;5012432;28;20061;-34
2022/03/11 08:34:30;;;;;;;5.00;1.20;;;;;;;;;;5013144;28;20033;-34
2022/03/11 08:36:57;;;;;;;4.32;1.02;;;;;;;;;;5011879;28;20068;-34
2022/03/11 08:39:24;;;;;;;5.35;1.30;;;;;;;;;;5012683;28;20030;-34
2022/03/11 08:41:51;;;;;;;5.38;1.20;;;;;;;;;;5012796;28;20034;-34
2022/03/11 08:44:18;;;;;;;3.58;1.15;;;;;;;;;;5011862;28;20125;-34
2022/03/11 08:46:45;;;;;;;4.68;1.30;;;;;;;;;;5012762;28;20022;-35
2022/03/11 08:49:12;;;;;;;5.07;1.45;;;;;;;;;;5011910;28;20388;-34
2022/03/11 08:51:41;;;;;;;3.28;1.02;;;;;;;;;;5012640;28;20622;-34
2022/03/11 08:54:08;;;;;;;4.65;1.30;;;;;;;;;;5012626;28;20384;-33
2022/03/11 08:56:35;;;;;;;4.00;1.27;;;;;;;;;;5011650;28;20384;-35
2022/03/11 08:59:02;;;;;;;4.25;1.30;;;;;;;;;;5012589;28;20423;-33
2022/03/11 09:01:29;;;;;;;7.32;1.35;;;;;;;;;;5011691;28;20080;-35
2022/03/11 09:03:56;;;;;;;6.35;1.30;;;;;;;;;;5012316;28;20034;-34
2022/03/11 09:06:24;;;;;;;6.03;1.25;;;;;;;;;;5012388;28;20029;-34
2022/03/11 09:08:51;;;;;;;4.90;1.33;;;;;;;;;;5011443;28;20061;-34
2022/03/11 09:11:18;;;;;;;5.63;1.40;;;;;;;;;;5011846;28;20030;-33
2022/03/11 09:13:47;;;;;;;6.88;1.20;;;;;;;;;;5012096;28;20109;-35
2022/03/11 09:16:14;;;;;;;7.13;1.65;;;;;;;;;;5011822;28;20092;-35
2022/03/11 09:18:41;;;;;;;6.00;1.45;;;;;;;;;;5011854;28;20113;-33
2022/03/11 09:21:08;;;;;;;6.90;1.15;;;;;;;;;;5012241;28;20022;-33
2022/03/11 09:23:35;;;;;;;3.17;1.10;;;;;;;;;;5011377;28;20105;-33
2022/03/11 09:26:02;;;;;;;3.85;1.00;;;;;;;;;;5012314;28;20092;-33
2022/03/11 09:28:31;;;;;;;6.00;1.50;;;;;;;;;;5011714;28;20018;-34
2022/03/11 09:30:58;;;;;;;6.25;1.35;;;;;;;;;;5011572;28;20030;-33
2022/03/11 09:33:25;;;;;;;7.45;1.50;;;;;;;;;;5011970;28;20069;-35
2022/03/11 09:35:52;;;;;;;6.93;1.55;;;;;;;;;;5011827;28;20026;-34
2022/03/11 09:38:19;;;;;;;4.70;1.23;;;;;;;;;;5011676;28;20026;-34
2022/03/11 09:40:46;;;;;;;7.85;1.83;;;;;;;;;;5012047;28;20022;-33
2022/03/11 09:43:14;;;;;;;8.18;1.60;;;;;;;;;;5011580;28;20038;-34
2022/03/11 09:45:41;;;;;;;5.80;1.40;;;;;;;;;;5011468;28;20153;-33
2022/03/11 09:48:09;;;;;;;5.05;1.60;;;;;;;;;;5011787;28;20022;-33
2022/03/11 09:50:36;;;;;;;6.53;1.80;;;;;;;;;;5011339;28;20056;-35
2022/03/11 09:53:03;;;;;;;7.00;1.63;;;;;;;;;;5011957;28;20032;-34
2022/03/11 09:55:30;;;;;;;11.98;1.83;;;;;;;;;;5011214;28;20040;-33
2022/03/11 09:57:57;;;;;;;11.65;1.88;;;;;;;;;;5011857;28;20045;-34
2022/03/11 10:00:24;;;;;;;11.43;2.15;;;;;;;;;;5011750;28;20026;-35
2022/03/11 10:02:51;;;;;;;8.60;1.90;;;;;;;;;;5011645;28;20484;-35
2022/03/11 10:05:18;;;;;;;10.95;2.05;;;;;;;;;;5011519;28;20026;-33
2022/03/11 10:07:45;;;;;;;8.82;1.90;;;;;;;;;;5013897;28;20484;-34
2022/03/11 10:10:14;;;;;;;13.27;2.08;;;;;;;;;;5015410;28;20028;-32
2022/03/11 10:12:46;;;;;;;12.18;2.45;;;;;;;;;;5014608;28;20045;-34
2022/03/11 10:15:16;;;;;;;22.33;2.72;;;;;;;;;;5014755;28;20020;-35
2022/03/11 10:17:45;;;;;;;23.02;2.60;;;;;;;;;;5014890;28;20077;-34
2022/03/11 10:20:14;;;;;;;15.32;2.45;;;;;;;;;;5014732;28;20026;-35
2022/03/11 10:22:42;;;;;;;17.75;2.20;;;;;;;;;;5015166;28;20387;-35
2022/03/11 10:25:10;;;;;;;19.15;2.75;;;;;;;;;;5014902;28;20026;-34
2022/03/11 10:27:54;;;;;;;19.75;2.63;;;;;;;;;;5014182;28;20084;-34
2022/03/11 10:30:21;;;;;;;22.95;3.05;;;;;;;;;;5015223;28;20022;-34
2022/03/11 10:32:52;;;;;;;22.10;3.03;;;;;;;;;;5014696;28;20053;-33
2022/03/11 10:35:19;;;;;;;19.55;2.90;;;;;;;;;;5014899;28;20022;-35
2022/03/11 10:37:59;;;;;;;25.02;2.90;;;;;;;;;;5014454;28;20025;-34
2022/03/11 10:40:27;;;;;;;18.00;3.03;;;;;;;;;;5014651;28;20022;-35
2022/03/11 10:43:29;;;;;;;16.55;2.80;;;;;;;;;;5010002;28;20048;-36
2022/03/11 10:45:57;;;;;;;21.70;3.42;;;;;;;;;;4904805;29;20063;-34
2022/03/11 10:48:43;;;;;;;21.08;3.28;;;;;;;;;;4976624;28;20045;-34
2022/03/11 10:51:26;;;;;;;24.58;2.88;;;;;;;;;;4994727;28;20030;-35
2022/03/11 10:53:55;;;;;;;20.73;2.80;;;;;;;;;;5007348;28;20046;-34
2022/03/11 10:56:33;;;;;;;20.45;3.53;;;;;;;;;;5003423;28;20040;-31
2022/03/11 10:59:00;;;;;;;20.77;3.20;;;;;;;;;;5008347;28;20061;-31
2022/03/11 11:01:36;;;;;;;15.65;2.38;;;;;;;;;;5004809;28;20034;-33
2022/03/11 11:04:04;;;;;;;14.65;2.58;;;;;;;;;;5002802;28;20029;-32
2022/03/11 11:06:32;;;;;;;23.17;3.15;;;;;;;;;;5003444;28;20022;-33
2022/03/11 11:08:59;;;;;;;16.42;2.83;;;;;;;;;;5003836;28;20026;-34
2022/03/11 11:11:26;;;;;;;12.23;2.63;;;;;;;;;;5003409;28;20023;-34
2022/03/11 11:13:53;;;;;;;34.47;4.70;;;;;;;;;;4999693;28;20039;-33
2022/03/11 11:16:27;;;;;;;30.90;3.38;;;;;;;;;;4994389;28;20457;-37
2022/03/11 11:19:03;;;;;;;31.88;3.58;;;;;;;;;;4993499;28;20033;-35
2022/03/11 11:21:30;;;;;;;52.05;3.85;;;;;;;;;;4992030;28;20030;-32
2022/03/11 11:23:58;;;;;;;44.55;4.18;;;;;;;;;;5027609;28;20036;-33
2022/03/11 11:26:26;;;;;;;350.38;20.83;;;;;;;;;;5032533;28;20029;-33
2022/03/11 11:28:54;;;;;;;156.55;9.90;;;;;;;;;;5032454;28;20037;-33
2022/03/11 11:31:21;;;;;;;80.22;7.07;;;;;;;;;;5001022;28;20030;-36
2022/03/11 11:33:49;;;;;;;77.88;8.30;;;;;;;;;;5000886;28;20041;-34
2022/03/11 11:36:34;;;;;;;35.25;5.25;;;;;;;;;;5002307;28;20041;-35
2022/03/11 11:39:05;;;;;;;26.58;4.43;;;;;;;;;;5008877;28;20113;-35
2022/03/11 11:41:33;;;;;;;31.87;3.90;;;;;;;;;;5001753;28;20077;-36
2022/03/11 11:44:08;;;;;;;58.33;6.68;;;;;;;;;;5002165;28;20030;-34
2022/03/11 11:46:37;;;;;;;183.40;20.60;;;;;;;;;;4999206;28;20563;-30
2022/03/11 11:49:13;;;;;;;65.53;9.90;;;;;;;;;;4998304;28;20480;-32
2022/03/11 11:51:40;;;;;;;91.65;8.88;;;;;;;;;;5009587;28;20034;-32
2022/03/11 11:54:11;;;;;;;70.68;8.35;;;;;;;;;;5012888;28;20034;-31
2022/03/11 11:56:41;;;;;;;74.18;8.68;;;;;;;;;;5012281;28;20034;-30
2022/03/11 11:59:10;;;;;;;73.68;8.73;;;;;;;;;;5011137;28;20046;-31
2022/03/11 12:01:40;;;;;;;65.68;8.40;;;;;;;;;;5011903;28;20033;-32
2022/03/11 12:04:25;;;;;;;71.70;7.82;;;;;;;;;;5011556;28;20424;-31
2022/03/11 12:07:00;;;;;;;46.47;5.63;;;;;;;;;;5011413;28;20029;-32
2022/03/11 12:09:51;;;;;;;54.90;6.28;;;;;;;;;;5011602;28;20022;-33
2022/03/11 12:12:21;;;;;;;42.95;5.20;;;;;;;;;;5011506;28;20601;-32
2022/03/11 12:15:08;;;;;;;34.45;3.97;;;;;;;;;;5011009;28;20030;-37
2022/03/11 12:17:44;;;;;;;22.27;4.07;;;;;;;;;;5012143;28;20160;-37
2022/03/11 12:20:30;;;;;;;58.30;5.50;;;;;;;;;;5011421;28;20029;-37
2022/03/11 12:22:57;;;;;;;33.97;3.90;;;;;;;;;;5011421;28;20093;-36
2022/03/11 12:25:29;;;;;;;32.88;3.60;;;;;;;;;;5011837;28;20017;-36
2022/03/11 12:28:16;;;;;;;26.87;3.87;;;;;;;;;;5011393;28;20014;-36
2022/03/11 12:30:49;;;;;;;29.08;3.55;;;;;;;;;;5007189;28;20605;-36
2022/03/11 12:33:20;;;;;;;25.08;3.03;;;;;;;;;;4996697;28;20353;-34
2022/03/11 12:35:49;;;;;;;22.77;2.90;;;;;;;;;;4999794;28;20018;-35
2022/03/11 12:38:17;;;;;;;41.13;4.47;;;;;;;;;;4990154;28;20023;-34
2022/03/11 12:40:45;;;;;;;23.00;2.90;;;;;;;;;;4992268;28;20022;-35
2022/03/11 12:43:13;;;;;;;39.63;3.83;;;;;;;;;;4994862;28;20030;-34
2022/03/11 12:45:45;;;;;;;56.33;4.80;;;;;;;;;;5032592;28;20406;-31
2022/03/11 12:48:13;;;;;;;34.33;3.72;;;;;;;;;;5031474;28;20079;-33
2022/03/11 12:50:41;;;;;;;59.78;5.15;;;;;;;;;;5030218;28;20087;-33
2022/03/11 12:53:09;;;;;;;28.20;3.92;;;;;;;;;;5031231;28;20080;-33
2022/03/11 12:55:38;;;;;;;55.38;4.75;;;;;;;;;;5016859;28;20030;-34
2022/03/11 12:58:09;;;;;;;42.97;3.63;;;;;;;;;;5000197;28;20428;-33
2022/03/11 13:00:37;;;;;;;28.40;3.60;;;;;;;;;;5001404;28;20425;-35
2022/03/11 13:03:06;;;;;;;34.47;4.63;;;;;;;;;;4986699;28;20037;-35
2022/03/11 13:05:34;;;;;;;36.80;2.88;;;;;;;;;;5007351;28;20038;-35
2022/03/11 13:08:02;;;;;;;77.55;6.38;;;;;;;;;;5000690;28;20124;-34
2022/03/11 13:10:29;;;;;;;40.22;4.10;;;;;;;;;;5000447;28;20044;-32
2022/03/11 13:12:57;;;;;;;22.95;3.05;;;;;;;;;;5001322;28;20042;-32
2022/03/11 13:15:26;;;;;;;28.85;3.00;;;;;;;;;;4991906;28;20791;-32
2022/03/11 13:18:04;;;;;;;29.15;3.22;;;;;;;;;;4993688;28;20026;-32
2022/03/11 13:20:47;;;;;;;31.73;3.65;;;;;;;;;;4989755;28;20033;-32
2022/03/11 13:23:22;;;;;;;41.40;4.10;;;;;;;;;;4991199;28;20049;-32
2022/03/11 13:25:51;;;;;;;28.02;3.35;;;;;;;;;;4990841;28;20041;-32
2022/03/11 13:28:22;;;;;;;16.88;2.67;;;;;;;;;;4990640;28;20030;-32
2022/03/11 13:30:49;;;;;;;20.63;2.55;;;;;;;;;;4990369;28;20543;-34
2022/03/11 13:33:19;;;;;;;18.42;3.28;;;;;;;;;;4990592;28;20043;-34
2022/03/11 13:35:46;;;;;;;29.00;3.33;;;;;;;;;;4990844;28;20034;-33
2022/03/11 13:38:35;;;;;;;31.45;3.70;;;;;;;;;;4990351;28;20157;-31
2022/03/11 13:41:04;;;;;;;20.42;2.88;;;;;;;;;;4993840;28;20037;-33
2022/03/11 13:43:31;;;;;;;27.08;2.97;;;;;;;;;;5011395;28;20053;-31
2022/03/11 13:45:58;;;;;;;27.80;3.08;;;;;;;;;;5014024;28;20678;-34
2022/03/11 13:48:43;;;;;;;55.17;5.70;;;;;;;;;;5014738;28;20041;-30
2022/03/11 13:51:11;;;;;;;46.83;4.93;;;;;;;;;;5013713;28;20105;-31
2022/03/11 13:53:39;;;;;;;32.67;4.45;;;;;;;;;;5013629;28;20034;-31
2022/03/11 13:56:16;;;;;;;45.47;3.88;;;;;;;;;;5013651;28;20116;-33
2022/03/11 13:58:43;;;;;;;28.02;3.08;;;;;;;;;;5013388;28;20394;-32
2022/03/11 14:01:11;;;;;;;32.83;3.78;;;;;;;;;;5014616;28;20029;-33
2022/03/11 14:03:45;;;;;;;36.65;3.67;;;;;;;;;;4996083;28;20503;-33
2022/03/11 14:06:12;;;;;;;25.73;2.72;;;;;;;;;;5001291;28;20038;-31
2022/03/11 14:08:39;;;;;;;32.55;3.38;;;;;;;;;;5014178;28;20025;-31
2022/03/11 14:11:07;;;;;;;28.88;3.70;;;;;;;;;;5013779;28;20034;-31
2022/03/11 14:13:38;;;;;;;15.60;2.63;;;;;;;;;;5006394;28;20132;-31
2022/03/11 14:16:10;;;;;;;24.67;2.33;;;;;;;;;;5002622;28;20028;-33
2022/03/11 14:18:38;;;;;;;18.42;1.90;;;;;;;;;;4994347;28;20030;-30
2022/03/11 14:21:06;;;;;;;20.17;2.47;;;;;;;;;;4993372;28;20046;-32
2022/03/11 14:23:34;;;;;;;26.73;2.75;;;;;;;;;;4993528;28;20069;-34
2022/03/11 14:26:01;;;;;;;16.63;2.10;;;;;;;;;;4993191;28;20041;-34
2022/03/11 14:28:28;;;;;;;42.67;3.20;;;;;;;;;;4994487;28;20022;-30
2022/03/11 14:30:55;;;;;;;22.15;2.78;;;;;;;;;;4992833;28;20026;-29
2022/03/11 14:33:24;;;;;;;20.35;2.80;;;;;;;;;;4999274;28;20060;-31
2022/03/11 14:35:51;;;;;;;15.70;2.80;;;;;;;;;;5011908;28;20041;-31
2022/03/11 14:38:18;;;;;;;32.47;2.90;;;;;;;;;;5003717;28;20026;-31